sensor_id;sensor_type;location;lat;lon;timestamp;pressure;altitude;pressure_sealevel;temperature;humidity
75188;BME280;63762;51.334;22.108;2024-01-25T00:04:03;100789.86;;;6.26;80.59
75188;BME280;63762;51.334;22.108;2024-01-25T00:14:10;100795.89;;;6.44;78.60
75188;BME280;63762;51.334;22.108;2024-01-25T00:24:17;100807.91;;;6.51;77.93
75188;BME280;63762;51.334;22.108;2024-01-25T00:34:25;100800.18;;;6.46;77.44
75188;BME280;63762;51.334;22.108;2024-01-25T00:44:32;100815.71;;;6.40;77.57
75188;BME280;63762;51.334;22.108;2024-01-25T00:54:39;100821.30;;;6.07;78.04
75188;BME280;63762;51.334;22.108;2024-01-25T01:04:46;100821.86;;;5.67;80.30
75188;BME280;63762;51.334;22.108;2024-01-25T01:14:53;100827.30;;;5.66;82.35
75188;BME280;63762;51.334;22.108;2024-01-25T01:25:00;100831.80;;;5.50;83.69
75188;BME280;63762;51.334;22.108;2024-01-25T01:35:07;100812.18;;;5.51;83.58
75188;BME280;63762;51.334;22.108;2024-01-25T01:45:14;100835.41;;;5.49;83.46
75188;BME280;63762;51.334;22.108;2024-01-25T01:55:21;100822.50;;;5.41;83.01
75188;BME280;63762;51.334;22.108;2024-01-25T02:05:28;100818.91;;;5.42;82.15
75188;BME280;63762;51.334;22.108;2024-01-25T02:15:36;100813.46;;;5.44;81.78
75188;BME280;63762;51.334;22.108;2024-01-25T02:25:43;100803.00;;;5.41;81.82
75188;BME280;63762;51.334;22.108;2024-01-25T02:35:50;100796.35;;;5.48;80.73
75188;BME280;63762;51.334;22.108;2024-01-25T02:45:57;100800.95;;;5.60;80.54
75188;BME280;63762;51.334;22.108;2024-01-25T02:56:05;100788.91;;;5.53;80.29
75188;BME280;63762;51.334;22.108;2024-01-25T03:06:11;100780.74;;;5.56;79.87
75188;BME280;63762;51.334;22.108;2024-01-25T03:16:18;100790.80;;;5.66;79.01
75188;BME280;63762;51.334;22.108;2024-01-25T03:26:27;100772.20;;;5.65;78.51
75188;BME280;63762;51.334;22.108;2024-01-25T03:36:33;100795.09;;;5.69;77.14
75188;BME280;63762;51.334;22.108;2024-01-25T03:46:40;100777.85;;;5.74;76.84
75188;BME280;63762;51.334;22.108;2024-01-25T03:56:47;100786.15;;;5.70;77.24
75188;BME280;63762;51.334;22.108;2024-01-25T04:06:54;100772.81;;;5.70;77.53
75188;BME280;63762;51.334;22.108;2024-01-25T04:17:01;100788.52;;;5.74;77.68
75188;BME280;63762;51.334;22.108;2024-01-25T04:27:08;100789.35;;;5.61;78.04
75188;BME280;63762;51.334;22.108;2024-01-25T04:37:15;100785.46;;;5.66;77.18
75188;BME280;63762;51.334;22.108;2024-01-25T04:47:23;100778.77;;;5.59;77.17
75188;BME280;63762;51.334;22.108;2024-01-25T04:57:30;100786.51;;;5.64;77.26
75188;BME280;63762;51.334;22.108;2024-01-25T05:07:37;100806.50;;;5.57;77.77
75188;BME280;63762;51.334;22.108;2024-01-25T05:17:44;100812.02;;;5.54;77.56
75188;BME280;63762;51.334;22.108;2024-01-25T05:27:51;100810.70;;;5.61;77.79
75188;BME280;63762;51.334;22.108;2024-01-25T05:37:58;100824.05;;;5.45;79.21
75188;BME280;63762;51.334;22.108;2024-01-25T05:48:06;100831.12;;;5.15;80.60
75188;BME280;63762;51.334;22.108;2024-01-25T05:58:13;100820.98;;;5.22;80.67
75188;BME280;63762;51.334;22.108;2024-01-25T06:08:20;100830.08;;;5.02;82.12
75188;BME280;63762;51.334;22.108;2024-01-25T06:18:27;100822.16;;;5.01;82.28
75188;BME280;63762;51.334;22.108;2024-01-25T06:28:34;100828.78;;;4.94;82.99
75188;BME280;63762;51.334;22.108;2024-01-25T06:38:44;100826.81;;;4.97;83.01
75188;BME280;63762;51.334;22.108;2024-01-25T06:51:55;100836.16;;;4.89;83.97
75188;BME280;63762;51.334;22.108;2024-01-25T07:02:02;100845.92;;;4.73;84.32
75188;BME280;63762;51.334;22.108;2024-01-25T07:12:09;100855.17;;;4.83;84.10
75188;BME280;63762;51.334;22.108;2024-01-25T07:22:16;100846.30;;;4.82;83.97
75188;BME280;63762;51.334;22.108;2024-01-25T07:32:23;100857.05;;;4.81;83.89
75188;BME280;63762;51.334;22.108;2024-01-25T07:42:31;100860.68;;;4.95;83.37
75188;BME280;63762;51.334;22.108;2024-01-25T07:52:38;100859.30;;;4.88;83.81
75188;BME280;63762;51.334;22.108;2024-01-25T08:02:45;100860.77;;;4.94;83.80
75188;BME280;63762;51.334;22.108;2024-01-25T08:12:52;100859.81;;;4.95;83.46
75188;BME280;63762;51.334;22.108;2024-01-25T08:22:59;100857.07;;;4.96;83.19
75188;BME280;63762;51.334;22.108;2024-01-25T08:33:06;100868.10;;;5.06;83.44
75188;BME280;63762;51.334;22.108;2024-01-25T08:43:13;100870.48;;;4.95;83.87
75188;BME280;63762;51.334;22.108;2024-01-25T08:53:21;100864.65;;;5.04;83.89
75188;BME280;63762;51.334;22.108;2024-01-25T09:03:28;100890.44;;;5.03;85.14
75188;BME280;63762;51.334;22.108;2024-01-25T09:13:35;100904.53;;;4.90;86.78
75188;BME280;63762;51.334;22.108;2024-01-25T09:23:42;100914.32;;;4.89;86.82
75188;BME280;63762;51.334;22.108;2024-01-25T09:33:49;100924.39;;;4.67;87.83
75188;BME280;63762;51.334;22.108;2024-01-25T09:43:56;100938.71;;;4.82;87.63
75188;BME280;63762;51.334;22.108;2024-01-25T09:54:07;100925.31;;;4.83;87.20
75188;BME280;63762;51.334;22.108;2024-01-25T10:04:11;100915.84;;;4.78;87.12
75188;BME280;63762;51.334;22.108;2024-01-25T10:14:22;100941.53;;;4.96;86.78
75188;BME280;63762;51.334;22.108;2024-01-25T10:24:39;100958.01;;;4.87;88.07
75188;BME280;63762;51.334;22.108;2024-01-25T10:34:47;100948.73;;;4.94;86.98
75188;BME280;63762;51.334;22.108;2024-01-25T10:44:59;100938.63;;;4.83;88.16
75188;BME280;63762;51.334;22.108;2024-01-25T10:55:03;100965.37;;;4.82;89.00
75188;BME280;63762;51.334;22.108;2024-01-25T11:05:14;100966.28;;;4.98;88.81
75188;BME280;63762;51.334;22.108;2024-01-25T11:25:49;100974.91;;;5.03;89.04
75188;BME280;63762;51.334;22.108;2024-01-25T11:36:01;100979.06;;;5.08;89.77
75188;BME280;63762;51.334;22.108;2024-01-25T11:46:12;100992.47;;;5.07;89.85
75188;BME280;63762;51.334;22.108;2024-01-25T11:56:29;100999.35;;;5.11;89.48
75188;BME280;63762;51.334;22.108;2024-01-25T12:06:32;100997.15;;;5.19;88.02
75188;BME280;63762;51.334;22.108;2024-01-25T12:16:36;101000.91;;;5.15;88.40
75188;BME280;63762;51.334;22.108;2024-01-25T12:26:37;101012.68;;;5.28;87.03
75188;BME280;63762;51.334;22.108;2024-01-25T12:36:38;101016.81;;;5.33;86.57
75188;BME280;63762;51.334;22.108;2024-01-25T12:46:39;101032.35;;;5.25;85.30
75188;BME280;63762;51.334;22.108;2024-01-25T12:56:40;101037.28;;;5.33;84.82
75188;BME280;63762;51.334;22.108;2024-01-25T13:06:41;101038.16;;;5.33;84.58
75188;BME280;63762;51.334;22.108;2024-01-25T13:16:42;101049.98;;;5.45;84.16
75188;BME280;63762;51.334;22.108;2024-01-25T13:26:43;101061.77;;;5.41;84.32
75188;BME280;63762;51.334;22.108;2024-01-25T13:36:44;101063.01;;;5.34;84.11
75188;BME280;63762;51.334;22.108;2024-01-25T13:46:48;101079.81;;;5.36;82.93
75188;BME280;63762;51.334;22.108;2024-01-25T13:56:55;101091.20;;;5.39;83.01
75188;BME280;63762;51.334;22.108;2024-01-25T14:07:02;101092.91;;;5.40;83.10
75188;BME280;63762;51.334;22.108;2024-01-25T14:17:09;101115.13;;;5.41;81.94
75188;BME280;63762;51.334;22.108;2024-01-25T14:27:16;101121.38;;;5.40;83.37
75188;BME280;63762;51.334;22.108;2024-01-25T14:37:31;101190.96;;;5.01;85.83
75188;BME280;63762;51.334;22.108;2024-01-25T14:47:42;101205.56;;;4.38;85.44
75188;BME280;63762;51.334;22.108;2024-01-25T14:57:44;101234.18;;;4.15;87.13
75188;BME280;63762;51.334;22.108;2024-01-25T15:07:45;101263.66;;;4.10;86.91
75188;BME280;63762;51.334;22.108;2024-01-25T15:17:52;101303.67;;;3.69;86.50
75188;BME280;63762;51.334;22.108;2024-01-25T15:27:59;101306.39;;;3.67;87.41
75188;BME280;63762;51.334;22.108;2024-01-25T15:38:06;101321.51;;;3.45;86.37
75188;BME280;63762;51.334;22.108;2024-01-25T15:48:13;101356.45;;;3.36;85.96
75188;BME280;63762;51.334;22.108;2024-01-25T15:58:21;101374.94;;;3.39;84.42
75188;BME280;63762;51.334;22.108;2024-01-25T16:08:27;101401.40;;;3.21;82.97
75188;BME280;63762;51.334;22.108;2024-01-25T16:18:35;101436.58;;;3.04;82.74
75188;BME280;63762;51.334;22.108;2024-01-25T16:28:42;101455.73;;;2.91;79.85
75188;BME280;63762;51.334;22.108;2024-01-25T16:38:49;101464.40;;;2.71;76.99
75188;BME280;63762;51.334;22.108;2024-01-25T16:48:56;101490.25;;;2.66;76.61
75188;BME280;63762;51.334;22.108;2024-01-25T16:59:03;101501.59;;;2.71;77.69
75188;BME280;63762;51.334;22.108;2024-01-25T17:09:12;101499.45;;;2.56;77.60
75188;BME280;63762;51.334;22.108;2024-01-25T17:19:17;101506.63;;;2.54;76.71
75188;BME280;63762;51.334;22.108;2024-01-25T17:29:24;101521.43;;;2.61;74.85
75188;BME280;63762;51.334;22.108;2024-01-25T17:39:32;101531.95;;;2.64;75.95
75188;BME280;63762;51.334;22.108;2024-01-25T17:49:39;101544.09;;;2.71;75.64
75188;BME280;63762;51.334;22.108;2024-01-25T17:59:46;101558.10;;;2.76;76.38
75188;BME280;63762;51.334;22.108;2024-01-25T18:09:53;101573.80;;;2.82;75.87
75188;BME280;63762;51.334;22.108;2024-01-25T18:20:01;101604.16;;;2.75;76.47
75188;BME280;63762;51.334;22.108;2024-01-25T18:30:08;101621.86;;;2.76;76.20
75188;BME280;63762;51.334;22.108;2024-01-25T18:40:15;101609.78;;;2.66;75.02
75188;BME280;63762;51.334;22.108;2024-01-25T18:50:22;101623.23;;;2.62;73.25
75188;BME280;63762;51.334;22.108;2024-01-25T19:00:29;101617.54;;;2.46;73.37
75188;BME280;63762;51.334;22.108;2024-01-25T19:10:36;101633.41;;;2.48;73.77
75188;BME280;63762;51.334;22.108;2024-01-25T19:20:43;101631.45;;;2.54;74.47
75188;BME280;63762;51.334;22.108;2024-01-25T19:30:50;101661.56;;;2.53;74.41
75188;BME280;63762;51.334;22.108;2024-01-25T19:40:57;101662.48;;;2.52;74.28
75188;BME280;63762;51.334;22.108;2024-01-25T19:51:04;101663.60;;;2.45;73.72
75188;BME280;63762;51.334;22.108;2024-01-25T20:01:12;101659.92;;;2.49;73.58
75188;BME280;63762;51.334;22.108;2024-01-25T20:11:19;101683.20;;;2.41;73.99
75188;BME280;63762;51.334;22.108;2024-01-25T20:21:26;101681.45;;;2.40;74.39
75188;BME280;63762;51.334;22.108;2024-01-25T20:31:33;101685.13;;;2.36;74.11
75188;BME280;63762;51.334;22.108;2024-01-25T20:41:40;101693.04;;;2.38;74.18
75188;BME280;63762;51.334;22.108;2024-01-25T20:51:47;101709.20;;;2.30;73.74
75188;BME280;63762;51.334;22.108;2024-01-25T21:01:57;101711.90;;;2.28;74.16
75188;BME280;63762;51.334;22.108;2024-01-25T21:12:02;101743.71;;;2.30;74.13
75188;BME280;63762;51.334;22.108;2024-01-25T21:22:09;101756.09;;;2.31;74.28
75188;BME280;63762;51.334;22.108;2024-01-25T21:32:16;101750.88;;;2.28;74.77
75188;BME280;63762;51.334;22.108;2024-01-25T21:42:23;101764.62;;;2.11;74.28
75188;BME280;63762;51.334;22.108;2024-01-25T21:52:30;101773.05;;;2.25;73.53
75188;BME280;63762;51.334;22.108;2024-01-25T22:02:37;101781.30;;;2.16;73.93
75188;BME280;63762;51.334;22.108;2024-01-25T22:12:44;101810.99;;;1.98;75.19
75188;BME280;63762;51.334;22.108;2024-01-25T22:22:52;101809.05;;;2.05;75.12
75188;BME280;63762;51.334;22.108;2024-01-25T22:32:59;101826.30;;;1.89;75.22
75188;BME280;63762;51.334;22.108;2024-01-25T22:43:06;101829.60;;;1.97;76.15
75188;BME280;63762;51.334;22.108;2024-01-25T22:53:13;101842.95;;;1.94;75.65
75188;BME280;63762;51.334;22.108;2024-01-25T23:03:21;101853.72;;;1.88;75.35
75188;BME280;63762;51.334;22.108;2024-01-25T23:13:27;101863.09;;;2.01;75.06
75188;BME280;63762;51.334;22.108;2024-01-25T23:23:34;101869.52;;;1.92;74.76
75188;BME280;63762;51.334;22.108;2024-01-25T23:33:41;101887.09;;;1.96;75.13
75188;BME280;63762;51.334;22.108;2024-01-25T23:43:49;101889.86;;;1.92;75.29
75188;BME280;63762;51.334;22.108;2024-01-25T23:53:56;101904.98;;;1.90;75.04
